Time;durP1;ratioP1;P1;durP2;ratioP2;P2;SDS_P1;SDS_P2;PMS_P1;PMS_P2;Temp;Humidity;BMP_temperature;BMP_pressure;BME280_temperature;BME280_humidity;BME280_pressure;Samples;Min_cycle;Max_cycle;Signal;HPM_P1;HPM_P2
2021/11/25 00:01:10;;;;;;;0.98;0.47;;;7.00;99.90;;;;;;5001199;28;20046;-66
2021/11/25 00:03:38;;;;;;;6.90;1.48;;;7.00;99.90;;;;;;5007142;28;20561;-66
2021/11/25 00:06:05;;;;;;;0.30;0.20;;;7.00;99.90;;;;;;5005465;28;20038;-65
2021/11/25 00:08:32;;;;;;;2.13;0.60;;;7.00;99.90;;;;;;5009331;28;20610;-67
2021/11/25 00:11:00;;;;;;;0.35;0.20;;;6.90;99.90;;;;;;5005328;28;20129;-64
2021/11/25 00:13:27;;;;;;;0.50;0.20;;;6.90;99.90;;;;;;5006376;28;20084;-67
2021/11/25 00:15:53;;;;;;;2.33;0.60;;;6.90;99.90;;;;;;5007892;28;20037;-65
2021/11/25 00:18:21;;;;;;;1.70;1.10;;;6.90;99.90;;;;;;5008358;28;20056;-64
2021/11/25 00:20:48;;;;;;;0.32;0.30;;;6.90;99.90;;;;;;5005891;28;20038;-64
2021/11/25 00:23:15;;;;;;;0.75;0.63;;;6.90;99.90;;;;;;5012421;28;20069;-65
2021/11/25 00:25:42;;;;;;;1.65;0.40;;;6.90;99.90;;;;;;5006448;28;20104;-64
2021/11/25 00:28:09;;;;;;;0.68;0.50;;;6.90;99.90;;;;;;5007958;28;20068;-64
2021/11/25 00:30:39;;;;;;;0.82;0.50;;;6.90;99.90;;;;;;5006821;28;20129;-63
2021/11/25 00:33:06;;;;;;;0.80;0.50;;;6.80;99.90;;;;;;5005741;28;20054;-64
2021/11/25 00:35:33;;;;;;;2.17;0.32;;;6.80;99.90;;;;;;5007176;28;20384;-64
2021/11/25 00:38:01;;;;;;;0.95;0.82;;;6.80;99.90;;;;;;5007727;28;20034;-67
2021/11/25 00:40:28;;;;;;;1.83;0.35;;;6.80;99.90;;;;;;5006177;28;20100;-65
2021/11/25 00:42:55;;;;;;;0.73;0.22;;;6.80;99.90;;;;;;5007649;28;20054;-64
2021/11/25 00:45:22;;;;;;;2.22;0.43;;;6.80;99.90;;;;;;5004252;28;20416;-66
2021/11/25 00:47:49;;;;;;;1.50;0.43;;;6.80;99.90;;;;;;5007351;28;20049;-65
2021/11/25 00:50:18;;;;;;;0.75;0.32;;;6.80;99.90;;;;;;5007348;28;20049;-65
2021/11/25 00:52:45;;;;;;;0.30;0.30;;;6.80;99.90;;;;;;5007545;28;20631;-66
2021/11/25 00:55:13;;;;;;;0.40;0.40;;;6.80;99.90;;;;;;5003964;28;20092;-70
2021/11/25 00:57:40;;;;;;;1.63;0.60;;;6.90;99.90;;;;;;5006639;28;20093;-63
2021/11/25 01:00:10;;;;;;;0.45;0.32;;;6.90;99.90;;;;;;5008354;28;20507;-65
2021/11/25 01:02:37;;;;;;;2.45;0.45;;;6.90;99.90;;;;;;5006466;28;20062;-64
2021/11/25 01:05:06;;;;;;;0.57;0.40;;;6.90;99.90;;;;;;5005759;28;20072;-65
2021/11/25 01:07:33;;;;;;;3.97;0.40;;;6.90;99.90;;;;;;5007031;28;20046;-67
2021/11/25 01:10:00;;;;;;;0.80;0.20;;;6.90;99.90;;;;;;5007687;28;20041;-64
2021/11/25 01:12:28;;;;;;;0.10;0.10;;;6.90;99.90;;;;;;5005615;28;20041;-66
2021/11/25 01:14:55;;;;;;;0.43;0.25;;;6.90;99.90;;;;;;5006598;28;20149;-64
2021/11/25 01:17:22;;;;;;;1.55;0.40;;;6.90;99.90;;;;;;5004441;28;20046;-66
2021/11/25 01:19:50;;;;;;;3.50;0.43;;;6.90;99.90;;;;;;5007291;28;20153;-63
2021/11/25 01:22:17;;;;;;;0.38;0.38;;;6.90;99.90;;;;;;5005538;28;20049;-67
2021/11/25 01:24:45;;;;;;;1.90;0.40;;;6.80;99.90;;;;;;5007031;28;20056;-63
2021/11/25 01:27:12;;;;;;;0.52;0.22;;;6.90;99.90;;;;;;5002659;28;20135;-67
2021/11/25 01:29:39;;;;;;;0.65;0.32;;;6.80;99.90;;;;;;5007141;28;20727;-63
2021/11/25 01:32:07;;;;;;;0.13;0.13;;;6.80;99.90;;;;;;5005469;28;20053;-67
2021/11/25 01:34:34;;;;;;;0.82;0.10;;;6.80;99.90;;;;;;5007079;28;20096;-64
2021/11/25 01:37:02;;;;;;;2.65;1.60;;;6.90;99.90;;;;;;5002514;28;20092;-68
2021/11/25 01:39:29;;;;;;;3.22;0.38;;;6.90;99.90;;;;;;5006443;28;20427;-65
2021/11/25 01:41:56;;;;;;;1.08;0.20;;;6.80;99.90;;;;;;5004738;28;20053;-65
2021/11/25 01:44:23;;;;;;;0.52;0.40;;;6.80;99.90;;;;;;5006233;28;20049;-67
2021/11/25 01:46:51;;;;;;;0.73;0.25;;;6.80;99.90;;;;;;5005987;28;20071;-67
2021/11/25 01:49:18;;;;;;;1.05;0.68;;;6.80;99.90;;;;;;5004990;28;20380;-64
2021/11/25 01:51:45;;;;;;;3.08;0.50;;;6.80;99.90;;;;;;5005784;28;20052;-67
2021/11/25 01:54:12;;;;;;;1.00;0.25;;;6.80;99.90;;;;;;5003806;28;20042;-64
2021/11/25 01:56:39;;;;;;;1.10;1.10;;;6.80;99.90;;;;;;5005205;28;20124;-63
2021/11/25 01:59:06;;;;;;;0.75;0.22;;;6.70;99.90;;;;;;4998719;28;20049;-71
2021/11/25 02:01:34;;;;;;;2.03;0.52;;;6.70;99.90;;;;;;5004352;28;20149;-65
2021/11/25 02:04:04;;;;;;;0.32;0.30;;;6.70;99.90;;;;;;5003702;28;20145;-66
2021/11/25 02:06:35;;;;;;;0.90;0.45;;;6.60;99.90;;;;;;5003931;28;20553;-65
2021/11/25 02:09:04;;;;;;;0.50;0.30;;;6.60;99.90;;;;;;5004290;28;20034;-70
2021/11/25 02:11:31;;;;;;;0.47;0.28;;;6.70;99.90;;;;;;5007007;28;20049;-64
2021/11/25 02:13:58;;;;;;;0.68;0.52;;;6.60;99.90;;;;;;5003422;28;20046;-67
2021/11/25 02:16:25;;;;;;;4.00;0.40;;;6.70;99.90;;;;;;5005725;28;20157;-65
2021/11/25 02:18:55;;;;;;;0.82;0.40;;;6.70;99.90;;;;;;5004804;28;20042;-66
2021/11/25 02:21:25;;;;;;;2.17;0.57;;;6.60;99.90;;;;;;5004720;28;20951;-64
2021/11/25 02:23:52;;;;;;;0.10;0.10;;;6.60;99.90;;;;;;5002762;28;20150;-67
2021/11/25 02:26:19;;;;;;;0.30;0.30;;;6.60;99.90;;;;;;5004622;28;20120;-63
2021/11/25 02:28:46;;;;;;;2.65;0.20;;;6.60;99.90;;;;;;5004673;28;20045;-64
2021/11/25 02:31:13;;;;;;;3.20;0.43;;;6.60;99.90;;;;;;5004761;28;20519;-65
2021/11/25 02:33:41;;;;;;;0.95;0.47;;;6.60;99.90;;;;;;5003986;28;20136;-64
2021/11/25 02:36:09;;;;;;;0.28;0.28;;;6.70;99.90;;;;;;5005497;28;20341;-65
2021/11/25 02:38:37;;;;;;;2.10;0.30;;;6.70;99.90;;;;;;5004448;28;20077;-65
2021/11/25 02:41:04;;;;;;;0.63;0.20;;;6.60;99.90;;;;;;5001117;28;20357;-65
2021/11/25 02:43:33;;;;;;;0.28;0.20;;;6.60;99.90;;;;;;5002374;28;20223;-64
2021/11/25 02:46:03;;;;;;;0.47;0.22;;;6.60;99.90;;;;;;5004539;28;20622;-65
2021/11/25 02:48:50;;;;;;;;;;;6.60;99.90;;;;;;5002172;28;20046;-66
2021/11/25 02:51:23;;;;;;;1.20;0.30;;;6.60;99.90;;;;;;4998298;28;20016;-66
2021/11/25 02:53:51;;;;;;;0.32;0.22;;;6.60;99.90;;;;;;5003326;28;20042;-68
2021/11/25 02:56:21;;;;;;;0.43;0.20;;;6.60;99.90;;;;;;5003027;28;20042;-67
2021/11/25 02:58:50;;;;;;;0.10;0.10;;;6.60;99.90;;;;;;5035870;28;20045;-64
2021/11/25 03:01:19;;;;;;;2.28;0.35;;;6.50;99.90;;;;;;5001838;28;20150;-65
2021/11/25 03:03:47;;;;;;;1.75;0.35;;;6.50;99.90;;;;;;5003165;28;20042;-64
2021/11/25 03:06:15;;;;;;;0.65;0.20;;;6.50;99.90;;;;;;5004936;28;20038;-64
2021/11/25 03:08:43;;;;;;;5.55;0.90;;;6.50;99.90;;;;;;5003235;28;20111;-64
2021/11/25 03:11:19;;;;;;;1.92;0.60;;;6.60;99.90;;;;;;5002213;28;20046;-65
2021/11/25 03:13:56;;;;;;;1.48;0.43;;;6.50;99.90;;;;;;5004449;28;20149;-66
2021/11/25 03:16:25;;;;;;;0.77;0.20;;;6.50;99.90;;;;;;5003626;28;20151;-64
2021/11/25 03:18:52;;;;;;;0.63;0.40;;;6.50;99.90;;;;;;5005729;28;20066;-64
2021/11/25 03:21:20;;;;;;;0.20;0.20;;;6.60;99.90;;;;;;5000179;28;20046;-67
2021/11/25 03:23:49;;;;;;;2.67;0.68;;;6.50;99.90;;;;;;5005329;28;20084;-64
2021/11/25 03:26:19;;;;;;;1.20;0.10;;;6.50;99.90;;;;;;5002242;28;20050;-68
2021/11/25 03:28:47;;;;;;;2.40;0.25;;;6.50;99.90;;;;;;5001526;28;20096;-64
2021/11/25 03:31:19;;;;;;;2.00;0.25;;;6.40;99.90;;;;;;5002021;28;20496;-64
2021/11/25 03:33:46;;;;;;;1.60;0.40;;;6.40;99.90;;;;;;5004949;28;20046;-68
2021/11/25 03:36:13;;;;;;;0.55;0.30;;;6.40;99.90;;;;;;5004166;28;20050;-67
2021/11/25 03:38:41;;;;;;;3.90;0.43;;;6.40;99.90;;;;;;5005284;28;21011;-63
2021/11/25 03:41:12;;;;;;;0.68;0.28;;;6.40;99.90;;;;;;5000891;28;20054;-67
2021/11/25 03:43:41;;;;;;;0.35;0.35;;;6.50;99.90;;;;;;5004857;28;20053;-64
2021/11/25 03:46:08;;;;;;;1.40;0.30;;;6.40;99.90;;;;;;5004218;28;20348;-66
2021/11/25 03:48:35;;;;;;;0.75;0.75;;;6.50;99.90;;;;;;4998765;28;20357;-65
2021/11/25 03:51:06;;;;;;;0.43;0.40;;;6.40;99.90;;;;;;5001525;28;20156;-70
2021/11/25 03:53:36;;;;;;;1.17;0.55;;;6.40;99.90;;;;;;5004694;28;20052;-64
2021/11/25 03:56:04;;;;;;;0.52;0.40;;;6.40;99.90;;;;;;5006095;28;20034;-64
2021/11/25 03:58:31;;;;;;;1.50;0.40;;;6.40;99.90;;;;;;5008230;28;20049;-70
2021/11/25 04:00:58;;;;;;;0.80;0.35;;;6.50;99.90;;;;;;5007102;28;20042;-65
2021/11/25 04:03:26;;;;;;;1.92;0.77;;;6.50;99.90;;;;;;4994573;28;20141;-65
2021/11/25 04:05:53;;;;;;;2.85;0.40;;;6.50;99.90;;;;;;5007945;28;20042;-63
2021/11/25 04:08:21;;;;;;;1.38;0.65;;;6.50;99.90;;;;;;5007813;28;20049;-65
2021/11/25 04:10:48;;;;;;;0.73;0.43;;;6.60;99.90;;;;;;5006404;28;20581;-63
2021/11/25 04:13:15;;;;;;;1.55;0.43;;;6.60;99.90;;;;;;5006108;28;20042;-63
2021/11/25 04:15:42;;;;;;;0.45;0.38;;;6.60;99.90;;;;;;5005098;28;20057;-63
2021/11/25 04:18:10;;;;;;;1.35;0.30;;;6.60;99.90;;;;;;5003924;28;20042;-66
2021/11/25 04:20:37;;;;;;;0.40;0.40;;;6.60;99.90;;;;;;5007525;28;20151;-64
2021/11/25 04:23:06;;;;;;;0.55;0.32;;;6.60;99.90;;;;;;5006643;28;20072;-64
2021/11/25 04:25:38;;;;;;;1.02;0.32;;;6.60;99.90;;;;;;5005248;28;20046;-65
2021/11/25 04:28:05;;;;;;;0.30;0.30;;;6.70;99.90;;;;;;5007118;28;20502;-64
2021/11/25 04:35:56;;;;;;;1.63;0.52;;;6.70;99.90;;;;;;5006209;28;20059;-64
2021/11/25 04:38:24;;;;;;;7.40;1.20;;;6.80;99.90;;;;;;5006509;28;20125;-65
2021/11/25 04:40:55;;;;;;;1.33;0.95;;;6.80;99.90;;;;;;5007012;28;20073;-66
2021/11/25 04:43:23;;;;;;;;;;;6.80;99.90;;;;;;5004855;28;20049;-65
2021/11/25 04:45:52;;;;;;;1.33;0.85;;;6.80;99.90;;;;;;5007149;28;19956;-63
2021/11/25 04:48:21;;;;;;;2.55;0.90;;;6.90;99.90;;;;;;5005554;28;20108;-68
2021/11/25 04:50:49;;;;;;;1.58;0.95;;;6.90;99.90;;;;;;5008053;28;20053;-65
2021/11/25 04:53:17;;;;;;;1.90;0.60;;;6.90;99.90;;;;;;5004832;28;20045;-63
2021/11/25 04:55:44;;;;;;;1.17;0.80;;;6.90;99.90;;;;;;5002836;28;20050;-65
2021/11/25 04:58:12;;;;;;;3.58;0.75;;;6.90;99.90;;;;;;5005809;28;20075;-64
2021/11/25 05:00:40;;;;;;;2.22;0.68;;;6.90;99.90;;;;;;5005074;28;20049;-63
2021/11/25 05:03:08;;;;;;;2.33;0.40;;;6.90;99.90;;;;;;5003873;28;20465;-66
2021/11/25 05:05:35;;;;;;;0.52;0.40;;;6.80;99.90;;;;;;5007788;28;20077;-67
2021/11/25 05:08:02;;;;;;;8.77;2.17;;;6.90;99.90;;;;;;5003841;28;20048;-65
2021/11/25 05:10:30;;;;;;;7.63;0.95;;;6.90;99.90;;;;;;5004596;28;20120;-70
2021/11/25 05:12:57;;;;;;;0.90;0.60;;;6.90;99.90;;;;;;5002903;28;20080;-64
2021/11/25 05:15:24;;;;;;;0.73;0.40;;;6.90;99.90;;;;;;5005742;28;20045;-65
2021/11/25 05:17:51;;;;;;;2.88;0.82;;;6.90;99.90;;;;;;5004280;28;20373;-70
2021/11/25 05:20:18;;;;;;;1.25;0.70;;;6.90;99.90;;;;;;5005894;28;20050;-64
2021/11/25 05:22:46;;;;;;;0.75;0.50;;;7.00;99.90;;;;;;5004012;28;20139;-64
2021/11/25 05:25:15;;;;;;;1.00;0.73;;;7.00;99.90;;;;;;5001105;28;20053;-73
2021/11/25 05:27:43;;;;;;;4.75;0.70;;;7.00;99.90;;;;;;5005145;28;20038;-64
2021/11/25 05:30:12;;;;;;;3.47;0.70;;;7.00;99.90;;;;;;5007344;28;20468;-64
2021/11/25 05:32:40;;;;;;;5.45;0.75;;;7.10;99.90;;;;;;5004329;28;20046;-64
2021/11/25 05:35:07;;;;;;;0.85;0.57;;;7.10;99.90;;;;;;5005687;28;20057;-68
2021/11/25 05:37:35;;;;;;;2.72;0.98;;;7.10;99.90;;;;;;5036366;28;20034;-66
2021/11/25 05:40:04;;;;;;;1.17;0.65;;;7.10;99.90;;;;;;5006282;28;20038;-69
2021/11/25 05:42:32;;;;;;;1.42;0.95;;;7.10;99.90;;;;;;5034493;28;20061;-64
2021/11/25 05:44:59;;;;;;;0.82;0.43;;;7.10;99.90;;;;;;5006754;28;20100;-68
2021/11/25 05:47:33;;;;;;;1.07;0.90;;;7.10;99.90;;;;;;5002722;28;20462;-64
2021/11/25 05:50:05;;;;;;;2.30;1.00;;;7.10;99.90;;;;;;5000904;28;20042;-64
2021/11/25 05:52:32;;;;;;;1.60;1.40;;;7.10;99.90;;;;;;5002624;28;20145;-69
2021/11/25 05:55:00;;;;;;;1.10;0.57;;;7.10;99.90;;;;;;5005678;28;20058;-64
2021/11/25 05:57:27;;;;;;;2.65;1.20;;;7.10;99.90;;;;;;5002829;28;20065;-65
2021/11/25 05:59:54;;;;;;;3.80;1.15;;;7.10;99.90;;;;;;5005291;28;20038;-71
2021/11/25 06:02:21;;;;;;;1.70;1.00;;;7.10;99.90;;;;;;5003095;28;20054;-68
2021/11/25 06:04:49;;;;;;;2.85;1.17;;;7.10;99.90;;;;;;5005327;28;20224;-66
2021/11/25 06:07:16;;;;;;;2.72;1.02;;;7.10;99.90;;;;;;5001312;28;20056;-70
2021/11/25 06:09:43;;;;;;;2.35;1.88;;;7.10;99.90;;;;;;5005536;28;20436;-64
2021/11/25 06:12:10;;;;;;;0.70;0.70;;;7.10;99.90;;;;;;5003362;28;20053;-63
2021/11/25 06:14:38;;;;;;;1.33;0.90;;;7.10;99.90;;;;;;5003723;28;20038;-69
2021/11/25 06:17:05;;;;;;;1.27;1.17;;;7.10;99.90;;;;;;5002764;28;20456;-70
2021/11/25 06:19:32;;;;;;;1.98;1.02;;;7.10;99.90;;;;;;5004565;28;20053;-65
2021/11/25 06:21:59;;;;;;;1.10;0.75;;;7.10;99.90;;;;;;5002567;28;20436;-71
2021/11/25 06:24:27;;;;;;;6.57;2.17;;;7.10;99.90;;;;;;5003638;28;20479;-64
2021/11/25 06:26:54;;;;;;;2.38;1.00;;;7.10;99.90;;;;;;5003176;28;20045;-64
2021/11/25 06:29:21;;;;;;;0.82;0.80;;;7.20;99.90;;;;;;4999099;28;24517;-72
2021/11/25 06:31:48;;;;;;;3.17;1.30;;;7.10;99.90;;;;;;5004514;28;20034;-64
2021/11/25 06:34:15;;;;;;;1.92;1.10;;;7.10;99.90;;;;;;5003926;28;20092;-65
2021/11/25 06:36:42;;;;;;;1.17;0.85;;;7.10;99.90;;;;;;5002674;28;20203;-73
2021/11/25 06:39:10;;;;;;;1.75;1.17;;;7.10;99.90;;;;;;5000672;28;20038;-67
2021/11/25 06:41:38;;;;;;;1.52;0.82;;;7.10;99.90;;;;;;5002053;28;20049;-71
2021/11/25 06:44:05;;;;;;;1.77;0.95;;;7.10;99.90;;;;;;5002721;28;20041;-66
2021/11/25 06:46:33;;;;;;;2.00;0.80;;;7.10;99.90;;;;;;5000942;28;20119;-65
2021/11/25 06:49:03;;;;;;;3.92;0.85;;;7.10;99.90;;;;;;4987883;28;20436;-64
2021/11/25 06:51:32;;;;;;;1.40;0.70;;;7.10;99.90;;;;;;5028136;28;20049;-64
2021/11/25 06:54:01;;;;;;;1.90;0.60;;;7.10;99.90;;;;;;5004319;28;20654;-64
2021/11/25 06:56:29;;;;;;;0.88;0.65;;;7.10;99.90;;;;;;5028510;28;20891;-64
2021/11/25 06:58:59;;;;;;;0.73;0.50;;;7.10;99.90;;;;;;5002972;28;20049;-64
2021/11/25 07:01:26;;;;;;;0.98;0.68;;;7.00;99.90;;;;;;4982978;28;20050;-63
2021/11/25 07:03:53;;;;;;;0.45;0.40;;;7.10;99.90;;;;;;5002340;28;20050;-67
2021/11/25 07:06:21;;;;;;;1.25;0.50;;;7.10;99.90;;;;;;5000900;28;20147;-66
2021/11/25 07:08:48;;;;;;;0.50;0.50;;;7.10;99.90;;;;;;5002869;28;20119;-63
2021/11/25 07:11:15;;;;;;;0.28;0.28;;;7.10;99.90;;;;;;5010029;28;20042;-63
2021/11/25 07:13:43;;;;;;;0.40;0.40;;;7.10;99.90;;;;;;5003169;28;20068;-65
2021/11/25 07:16:11;;;;;;;1.38;0.63;;;7.10;99.90;;;;;;4986895;28;20046;-64
2021/11/25 07:18:39;;;;;;;0.93;0.40;;;7.10;99.90;;;;;;5003686;28;20034;-64
2021/11/25 07:21:06;;;;;;;0.47;0.30;;;7.10;99.90;;;;;;4983747;28;20492;-64
2021/11/25 07:23:34;;;;;;;1.10;0.50;;;7.10;99.90;;;;;;5005519;28;20042;-63
2021/11/25 07:26:03;;;;;;;0.75;0.50;;;7.10;99.90;;;;;;5001499;28;20441;-73
2021/11/25 07:28:31;;;;;;;0.60;0.60;;;7.10;99.90;;;;;;4997461;28;20104;-65
2021/11/25 07:31:04;;;;;;;1.33;0.60;;;7.20;99.90;;;;;;5000671;28;20160;-66
2021/11/25 07:33:40;;;;;;;0.68;0.57;;;7.20;99.90;;;;;;4991839;28;20049;-64
2021/11/25 07:36:07;;;;;;;1.63;0.85;;;7.20;99.90;;;;;;5017744;28;20165;-65
2021/11/25 07:38:38;;;;;;;2.15;1.20;;;7.20;99.90;;;;;;5005110;28;20057;-64
2021/11/25 07:41:06;;;;;;;5.70;1.00;;;7.30;99.90;;;;;;5035572;28;20053;-66
2021/11/25 07:43:34;;;;;;;0.80;0.80;;;7.30;99.90;;;;;;4988340;28;20559;-65
2021/11/25 07:46:02;;;;;;;1.88;1.35;;;7.30;99.90;;;;;;5007403;28;20096;-64
2021/11/25 07:48:30;;;;;;;2.13;0.90;;;7.30;99.90;;;;;;5006400;28;20110;-64
2021/11/25 07:51:01;;;;;;;2.55;1.17;;;7.30;99.90;;;;;;5035267;28;20060;-64
2021/11/25 07:53:28;;;;;;;1.92;0.90;;;7.40;99.90;;;;;;4984822;28;20069;-68
2021/11/25 07:55:56;;;;;;;3.42;1.58;;;7.40;99.90;;;;;;5005822;28;20050;-68
2021/11/25 07:58:23;;;;;;;1.50;1.40;;;7.40;99.90;;;;;;5006080;28;20439;-67
2021/11/25 08:00:50;;;;;;;2.75;2.10;;;7.40;99.90;;;;;;5004973;28;20053;-64
2021/11/25 08:03:18;;;;;;;2.00;1.90;;;7.40;99.90;;;;;;5005894;28;20100;-67
2021/11/25 08:05:49;;;;;;;3.20;1.60;;;7.50;99.90;;;;;;5034949;28;20037;-67
2021/11/25 08:08:16;;;;;;;4.05;2.00;;;7.50;99.90;;;;;;5008282;28;20041;-65
2021/11/25 08:10:43;;;;;;;2.33;1.50;;;7.50;99.90;;;;;;5005369;28;20045;-66
2021/11/25 08:13:12;;;;;;;3.10;2.03;;;7.50;99.90;;;;;;5005425;28;20188;-67
2021/11/25 08:15:44;;;;;;;6.55;2.65;;;7.50;99.90;;;;;;5002846;28;20154;-66
2021/11/25 08:18:14;;;;;;;1.95;1.80;;;7.50;99.90;;;;;;5017800;28;20068;-63
2021/11/25 08:20:42;;;;;;;3.30;1.95;;;7.50;99.90;;;;;;5004283;28;20046;-67
2021/11/25 08:23:09;;;;;;;3.92;1.98;;;7.50;99.90;;;;;;5005743;28;20490;-65
2021/11/25 08:25:43;;;;;;;3.35;2.05;;;7.50;99.90;;;;;;4995406;28;20111;-64
2021/11/25 08:28:16;;;;;;;2.80;2.00;;;7.50;99.90;;;;;;5003020;28;20361;-66
2021/11/25 08:30:44;;;;;;;4.22;2.40;;;7.50;99.90;;;;;;5003464;28;20158;-65
2021/11/25 08:33:11;;;;;;;2.15;1.48;;;7.50;99.90;;;;;;5005899;28;20058;-63
2021/11/25 08:35:38;;;;;;;6.30;2.00;;;7.50;99.90;;;;;;5003911;28;20050;-64
2021/11/25 08:38:06;;;;;;;4.18;2.28;;;7.50;99.90;;;;;;4998728;28;20045;-64
2021/11/25 08:40:40;;;;;;;2.40;2.20;;;7.50;99.90;;;;;;5013919;28;20140;-64
2021/11/25 08:43:18;;;;;;;5.00;3.38;;;7.50;99.90;;;;;;4982494;28;20085;-66
2021/11/25 08:45:55;;;;;;;3.38;2.95;;;7.60;99.90;;;;;;5003660;28;20538;-63
2021/11/25 08:48:23;;;;;;;5.28;2.88;;;7.60;99.90;;;;;;5003984;28;20120;-65
2021/11/25 08:50:52;;;;;;;4.57;3.55;;;7.60;99.90;;;;;;5003355;28;20061;-64
2021/11/25 08:53:22;;;;;;;6.78;3.75;;;7.60;99.90;;;;;;5000171;28;20520;-64
2021/11/25 08:55:51;;;;;;;;;;;7.60;99.90;;;;;;5004234;28;20525;-65
2021/11/25 08:58:20;;;;;;;3.78;3.47;;;7.60;99.90;;;;;;5004228;28;20685;-64
2021/11/25 09:00:50;;;;;;;5.30;4.00;;;7.60;99.90;;;;;;5005653;28;20585;-67
2021/11/25 09:03:18;;;;;;;5.25;3.78;;;7.60;99.90;;;;;;5004897;28;20054;-67
2021/11/25 09:05:45;;;;;;;7.55;3.25;;;7.60;99.90;;;;;;5003622;28;20050;-68
2021/11/25 09:08:13;;;;;;;4.72;4.30;;;7.50;99.90;;;;;;5007473;28;20129;-65
2021/11/25 09:10:40;;;;;;;8.85;4.15;;;7.60;99.90;;;;;;5002639;28;20183;-64
2021/11/25 09:13:07;;;;;;;3.45;3.10;;;7.50;99.90;;;;;;5004974;28;20038;-65
2021/11/25 09:15:38;;;;;;;3.60;3.28;;;7.50;99.90;;;;;;5004930;28;20122;-67
2021/11/25 09:18:07;;;;;;;4.70;2.88;;;7.60;99.90;;;;;;5006314;28;20499;-68
2021/11/25 09:20:35;;;;;;;10.35;3.03;;;7.50;99.90;;;;;;5005149;28;20045;-67
2021/11/25 09:23:08;;;;;;;4.72;2.65;;;7.60;99.90;;;;;;5002794;28;20135;-68
2021/11/25 09:25:41;;;;;;;3.30;2.80;;;7.50;99.90;;;;;;5002475;28;20112;-65
2021/11/25 09:28:14;;;;;;;3.30;3.00;;;7.60;99.90;;;;;;5005235;28;20557;-71
2021/11/25 09:30:43;;;;;;;6.22;2.33;;;7.60;99.90;;;;;;5005325;28;20400;-71
2021/11/25 09:33:11;;;;;;;2.83;1.70;;;7.60;99.90;;;;;;5004638;28;20132;-64
2021/11/25 09:35:39;;;;;;;8.77;3.38;;;7.60;99.90;;;;;;5004750;28;20058;-65
2021/11/25 09:38:09;;;;;;;11.38;2.95;;;7.60;99.90;;;;;;5007290;28;20445;-64
2021/11/25 09:40:36;;;;;;;3.90;3.47;;;7.60;99.90;;;;;;5003434;28;20073;-73
2021/11/25 09:43:06;;;;;;;4.30;2.75;;;7.50;99.90;;;;;;5004928;28;20045;-65
2021/11/25 09:45:37;;;;;;;7.60;2.70;;;7.60;99.90;;;;;;5004137;28;20050;-65
2021/11/25 09:48:09;;;;;;;6.63;3.13;;;7.50;99.90;;;;;;5002874;28;20123;-65
2021/11/25 09:50:40;;;;;;;3.67;2.88;;;7.50;99.90;;;;;;5004082;28;20152;-71
2021/11/25 09:53:09;;;;;;;5.10;2.72;;;7.50;99.90;;;;;;5003713;28;20054;-66
2021/11/25 09:55:38;;;;;;;2.75;2.22;;;7.50;99.90;;;;;;5005341;28;20045;-67
2021/11/25 09:58:05;;;;;;;3.60;2.78;;;7.50;99.90;;;;;;5003672;28;20046;-65
2021/11/25 10:00:33;;;;;;;2.90;2.70;;;7.50;99.90;;;;;;5004527;28;20085;-64
2021/11/25 10:03:01;;;;;;;3.65;2.47;;;7.50;99.90;;;;;;5005492;28;20053;-65
2021/11/25 10:05:28;;;;;;;4.32;2.50;;;7.40;99.90;;;;;;5004702;28;20046;-64
2021/11/25 10:07:56;;;;;;;5.32;2.90;;;7.40;99.90;;;;;;5004906;28;20064;-66
2021/11/25 10:10:29;;;;;;;3.55;2.38;;;7.40;99.90;;;;;;5035000;28;20042;-72
2021/11/25 10:13:19;;;;;;;2.75;2.55;;;7.40;99.90;;;;;;5002639;28;20046;-64
2021/11/25 10:15:47;;;;;;;2.58;2.38;;;7.30;99.90;;;;;;4999523;28;20042;-66
2021/11/25 10:18:17;;;;;;;4.97;2.72;;;7.30;99.90;;;;;;5009883;28;20494;-65
2021/11/25 10:20:47;;;;;;;4.32;3.05;;;7.30;99.90;;;;;;5004277;28;20096;-67
2021/11/25 10:23:19;;;;;;;8.40;2.83;;;7.20;99.90;;;;;;5002782;28;20109;-64
2021/11/25 10:25:58;;;;;;;5.90;2.75;;;7.20;99.90;;;;;;5003833;28;20112;-64
2021/11/25 10:28:41;;;;;;;6.18;3.45;;;7.20;99.90;;;;;;4999459;28;20066;-66
2021/11/25 10:31:08;;;;;;;3.33;2.72;;;7.20;99.90;;;;;;5002907;28;20065;-67
2021/11/25 10:33:56;;;;;;;3.35;3.05;;;7.20;99.90;;;;;;5005106;28;20153;-68
2021/11/25 10:41:52;;;;;;;6.03;2.92;;;7.20;99.90;;;;;;5004806;28;20042;-66
2021/11/25 10:44:35;;;;;;;5.90;3.13;;;7.20;99.90;;;;;;4999019;28;20149;-64
2021/11/25 10:47:10;;;;;;;6.05;2.78;;;7.20;99.90;;;;;;5002838;28;20042;-64
2021/11/25 10:50:13;;;;;;;3.00;2.67;;;7.20;99.90;;;;;;5004049;28;20042;-66
2021/11/25 10:52:43;;;;;;;8.48;3.40;;;7.20;99.90;;;;;;5006621;28;20376;-65
2021/11/25 10:55:17;;;;;;;3.50;3.17;;;7.20;99.90;;;;;;5001593;28;20406;-69
2021/11/25 10:57:47;;;;;;;4.78;3.40;;;7.20;99.90;;;;;;5003935;28;20277;-64
2021/11/25 11:00:23;;;;;;;3.45;3.15;;;7.20;99.90;;;;;;5005023;28;20053;-64
2021/11/25 11:03:14;;;;;;;2.92;2.63;;;7.20;99.90;;;;;;5001237;28;20057;-64
2021/11/25 11:05:48;;;;;;;4.32;3.10;;;7.20;99.90;;;;;;5002706;28;20104;-70
2021/11/25 11:08:16;;;;;;;3.80;3.30;;;7.20;99.90;;;;;;5003843;28;20061;-65
2021/11/25 11:11:13;;;;;;;5.45;3.00;;;7.10;99.90;;;;;;5003008;28;20085;-65
2021/11/25 11:14:17;;;;;;;4.90;2.80;;;7.10;99.90;;;;;;4990808;28;20053;-65
2021/11/25 11:19:15;;;;;;;4.05;3.50;;;7.10;99.90;;;;;;5001018;28;20069;-68
2021/11/25 11:21:45;;;;;;;7.15;3.17;;;7.10;99.90;;;;;;5001143;28;20056;-67
2021/11/25 11:24:15;;;;;;;6.43;3.67;;;7.10;99.90;;;;;;5001834;28;20428;-65
2021/11/25 11:26:55;;;;;;;5.68;3.85;;;7.10;99.90;;;;;;5000800;28;20078;-66
2021/11/25 11:29:28;;;;;;;5.03;4.53;;;7.10;99.90;;;;;;5000518;28;20452;-69
2021/11/25 11:31:59;;;;;;;6.35;3.67;;;7.10;99.90;;;;;;5002140;28;20767;-65
2021/11/25 11:34:27;;;;;;;4.53;4.07;;;7.10;99.90;;;;;;5002373;28;20050;-65
2021/11/25 11:36:56;;;;;;;4.72;3.75;;;7.10;99.90;;;;;;5002622;28;20109;-66
2021/11/25 11:39:26;;;;;;;3.70;3.33;;;7.10;99.90;;;;;;5002317;28;20045;-68
2021/11/25 11:41:59;;;;;;;5.53;4.18;;;7.10;99.90;;;;;;5030276;28;20444;-65
2021/11/25 11:44:28;;;;;;;5.57;4.00;;;7.10;99.90;;;;;;5000966;28;20042;-63
2021/11/25 11:47:00;;;;;;;5.13;3.20;;;7.10;99.90;;;;;;5002662;28;20046;-64
2021/11/25 11:49:31;;;;;;;5.32;3.13;;;7.00;99.90;;;;;;5000744;28;20136;-64
2021/11/25 11:52:07;;;;;;;4.72;4.05;;;7.00;99.90;;;;;;5003008;28;20345;-65
2021/11/25 11:54:53;;;;;;;3.80;3.42;;;7.00;99.90;;;;;;5002373;28;20069;-64
2021/11/25 11:57:35;;;;;;;4.20;3.17;;;7.00;99.90;;;;;;4998677;28;20057;-66
2021/11/25 12:00:20;;;;;;;5.00;3.10;;;7.00;99.90;;;;;;5001253;28;20042;-67
2021/11/25 12:02:50;;;;;;;4.07;3.53;;;7.00;99.90;;;;;;5003488;28;20041;-64
2021/11/25 12:05:39;;;;;;;5.57;3.30;;;7.00;99.90;;;;;;5000953;28;20415;-66
2021/11/25 12:08:23;;;;;;;4.00;3.60;;;7.00;99.90;;;;;;5001371;28;20172;-67
2021/11/25 12:10:56;;;;;;;3.72;3.00;;;6.90;99.90;;;;;;4998736;28;20153;-67
2021/11/25 12:13:47;;;;;;;6.72;3.50;;;6.90;99.90;;;;;;5000317;28;20061;-65
2021/11/25 12:16:20;;;;;;;6.13;4.57;;;6.90;99.90;;;;;;5001336;28;20360;-69
2021/11/25 12:18:53;;;;;;;3.25;2.95;;;6.90;99.90;;;;;;5009539;28;20470;-66
2021/11/25 12:21:34;;;;;;;11.65;3.28;;;6.90;99.90;;;;;;4985166;28;20042;-66
2021/11/25 12:24:28;;;;;;;7.03;4.25;;;6.80;99.90;;;;;;4986872;28;20091;-67
2021/11/25 12:27:02;;;;;;;3.88;2.88;;;6.90;99.90;;;;;;4986693;28;20051;-64
2021/11/25 12:29:35;;;;;;;3.28;1.30;;;6.80;99.90;;;;;;5035032;28;20408;-65
2021/11/25 12:32:35;;;;;;;7.22;0.75;;;6.50;99.90;;;;;;5006924;28;20056;-65
2021/11/25 12:35:11;;;;;;;3.60;1.50;;;6.40;99.90;;;;;;5002533;28;20091;-66
2021/11/25 12:37:41;;;;;;;1.45;0.70;;;6.30;99.90;;;;;;5007551;28;20053;-65
2021/11/25 12:40:28;;;;;;;1.40;0.75;;;6.20;99.90;;;;;;5003909;28;20100;-67
2021/11/25 12:42:56;;;;;;;2.75;1.15;;;6.10;99.90;;;;;;5007423;28;20038;-64
2021/11/25 12:45:43;;;;;;;6.53;1.40;;;6.10;99.90;;;;;;5005518;28;20114;-66
2021/11/25 12:48:26;;;;;;;4.07;0.80;;;6.00;99.90;;;;;;5007614;28;20081;-64
2021/11/25 12:50:55;;;;;;;1.95;0.55;;;5.90;99.90;;;;;;5006513;28;20053;-65
2021/11/25 12:53:22;;;;;;;9.30;2.08;;;5.90;99.90;;;;;;5004433;28;20505;-64
2021/11/25 12:55:54;;;;;;;1.38;0.60;;;5.90;99.90;;;;;;5004257;28;20047;-65
2021/11/25 12:58:33;;;;;;;1.73;1.25;;;5.80;99.90;;;;;;5004564;28;20041;-64
2021/11/25 13:01:01;;;;;;;1.65;0.63;;;5.80;99.90;;;;;;5007034;28;20061;-66
2021/11/25 13:03:28;;;;;;;0.65;0.60;;;5.80;99.90;;;;;;5003988;28;20116;-64
2021/11/25 13:06:00;;;;;;;4.65;0.73;;;5.80;99.90;;;;;;5007816;28;20099;-64
2021/11/25 13:08:35;;;;;;;5.47;1.23;;;5.80;99.90;;;;;;5005564;28;20491;-64
2021/11/25 13:11:04;;;;;;;2.67;0.60;;;5.80;99.90;;;;;;5004670;28;20619;-66
2021/11/25 13:13:33;;;;;;;4.57;0.52;;;5.80;99.90;;;;;;5004404;28;20133;-65
2021/11/25 13:16:10;;;;;;;4.57;0.55;;;5.60;99.90;;;;;;5007108;28;20065;-67
2021/11/25 13:18:58;;;;;;;1.50;0.60;;;5.60;99.90;;;;;;5006816;28;20042;-65
2021/11/25 13:21:30;;;;;;;1.35;0.70;;;5.60;99.90;;;;;;5002516;28;20100;-67
2021/11/25 13:24:12;;;;;;;7.40;1.85;;;5.60;99.90;;;;;;5005231;28;20120;-65
2021/11/25 13:26:49;;;;;;;2.17;1.00;;;5.60;99.90;;;;;;5018076;28;20057;-65